Time;durP1;ratioP1;P1;durP2;ratioP2;P2;SDS_P1;SDS_P2;PMS_P1;PMS_P2;Temp;Humidity;BMP_temperature;BMP_pressure;BME280_temperature;BME280_humidity;BME280_pressure;Samples;Min_cycle;Max_cycle;Signal;HPM_P1;HPM_P2
2023/03/15 00:01:45;;;;;;;0.73;0.70;;;;;;;;;;6224807;28;20195;-51
2023/03/15 00:04:46;;;;;;;0.43;0.40;;;;;;;;;;6232399;28;20210;-52
2023/03/15 00:07:47;;;;;;;0.73;0.60;;;;;;;;;;6250520;28;20186;-52
2023/03/15 00:10:48;;;;;;;0.30;0.30;;;;;;;;;;6234147;28;20194;-55
2023/03/15 00:13:50;;;;;;;0.57;0.43;;;;;;;;;;6253045;28;20202;-53
2023/03/15 00:16:53;;;;;;;0.70;0.50;;;;;;;;;;6231195;28;20233;-55
2023/03/15 00:19:54;;;;;;;0.60;0.40;;;;;;;;;;6227253;28;20206;-52
2023/03/15 00:22:55;;;;;;;0.60;0.40;;;;;;;;;;6233388;28;20218;-53
2023/03/15 00:25:56;;;;;;;0.47;0.47;;;;;;;;;;6234730;28;20182;-52
2023/03/15 00:28:57;;;;;;;0.80;0.60;;;;;;;;;;6250206;28;20190;-55
2023/03/15 00:31:59;;;;;;;1.07;0.60;;;;;;;;;;6243097;28;20244;-54
2023/03/15 00:35:00;;;;;;;0.50;0.50;;;;;;;;;;6247048;28;20198;-56
2023/03/15 00:38:03;;;;;;;0.60;0.60;;;;;;;;;;6238652;28;20238;-55
2023/03/15 00:41:07;;;;;;;1.13;0.40;;;;;;;;;;6216062;28;20219;-50
2023/03/15 00:44:08;;;;;;;0.57;0.47;;;;;;;;;;6229093;28;20215;-53
2023/03/15 00:47:12;;;;;;;0.77;0.40;;;;;;;;;;6223727;28;20191;-55
2023/03/15 00:50:13;;;;;;;1.33;0.50;;;;;;;;;;6238179;28;20202;-52
2023/03/15 00:53:14;;;;;;;0.60;0.50;;;;;;;;;;6228716;28;20288;-54
2023/03/15 00:56:17;;;;;;;0.30;0.30;;;;;;;;;;6233281;28;20271;-53
2023/03/15 00:59:18;;;;;;;0.40;0.40;;;;;;;;;;6247546;28;20242;-53
2023/03/15 01:02:21;;;;;;;0.67;0.60;;;;;;;;;;6211182;28;20195;-56
2023/03/15 01:05:22;;;;;;;0.77;0.50;;;;;;;;;;6230860;28;20195;-51
2023/03/15 01:08:23;;;;;;;0.83;0.40;;;;;;;;;;6230190;28;20194;-52
2023/03/15 01:11:26;;;;;;;0.50;0.50;;;;;;;;;;6231938;28;20202;-53
2023/03/15 01:14:27;;;;;;;0.93;0.60;;;;;;;;;;6241730;28;20194;-53
2023/03/15 01:17:28;;;;;;;0.93;0.50;;;;;;;;;;6248270;28;20196;-52
2023/03/15 01:20:29;;;;;;;0.93;0.40;;;;;;;;;;6246974;28;20197;-55
2023/03/15 01:23:30;;;;;;;0.50;0.30;;;;;;;;;;6223243;28;20279;-52
2023/03/15 01:26:31;;;;;;;0.63;0.50;;;;;;;;;;6245064;28;20193;-53
2023/03/15 01:29:32;;;;;;;2.53;0.70;;;;;;;;;;6240772;28;20191;-53
2023/03/15 01:32:33;;;;;;;0.40;0.40;;;;;;;;;;6233580;28;20213;-53
2023/03/15 01:35:35;;;;;;;1.30;0.47;;;;;;;;;;6246469;28;20257;-54
2023/03/15 01:38:36;;;;;;;0.73;0.50;;;;;;;;;;6244603;28;20274;-56
2023/03/15 01:41:37;;;;;;;0.77;0.50;;;;;;;;;;6248709;28;20236;-55
2023/03/15 01:44:49;;;;;;;1.57;0.70;;;;;;;;;;6240872;28;20211;-55
2023/03/15 01:47:52;;;;;;;0.53;0.40;;;;;;;;;;6247375;28;20187;-51
2023/03/15 01:50:56;;;;;;;0.93;0.50;;;;;;;;;;6231615;28;20202;-56
2023/03/15 01:54:16;;;;;;;0.60;0.53;;;;;;;;;;6248008;28;20277;-52
2023/03/15 01:57:21;;;;;;;0.60;0.60;;;;;;;;;;6254804;28;20191;-53
2023/03/15 02:00:22;;;;;;;1.20;0.60;;;;;;;;;;6230731;28;20195;-52
2023/03/15 02:03:29;;;;;;;0.57;0.53;;;;;;;;;;6226733;28;20213;-50
2023/03/15 02:06:33;;;;;;;2.57;0.70;;;;;;;;;;6253860;28;20198;-52
2023/03/15 02:09:42;;;;;;;0.67;0.53;;;;;;;;;;6226197;28;20188;-56
2023/03/15 02:12:45;;;;;;;1.23;0.50;;;;;;;;;;6238178;28;20244;-53
2023/03/15 02:15:47;;;;;;;0.70;0.60;;;;;;;;;;6240125;28;20206;-56
2023/03/15 02:18:48;;;;;;;0.93;0.93;;;;;;;;;;6231741;28;20187;-55
2023/03/15 02:22:03;;;;;;;1.30;0.50;;;;;;;;;;6247353;28;20253;-53
2023/03/15 02:25:10;;;;;;;1.07;0.63;;;;;;;;;;6241944;28;20225;-55
2023/03/15 02:28:12;;;;;;;1.53;0.53;;;;;;;;;;6246056;28;20188;-51
2023/03/15 02:31:14;;;;;;;0.40;0.40;;;;;;;;;;6247423;28;20198;-54
2023/03/15 02:34:15;;;;;;;1.13;0.67;;;;;;;;;;6223464;28;20233;-54
2023/03/15 02:37:16;;;;;;;1.33;0.50;;;;;;;;;;6215434;28;20242;-54
2023/03/15 02:40:19;;;;;;;1.57;0.60;;;;;;;;;;6224133;28;20202;-56
2023/03/15 02:43:22;;;;;;;1.43;0.60;;;;;;;;;;6246909;28;20305;-53
2023/03/15 02:46:24;;;;;;;0.43;0.40;;;;;;;;;;6247365;28;20186;-53
2023/03/15 02:49:27;;;;;;;0.43;0.40;;;;;;;;;;6246280;28;20192;-54
2023/03/15 02:52:28;;;;;;;1.17;0.80;;;;;;;;;;6247312;28;20187;-55
2023/03/15 02:55:31;;;;;;;1.03;0.60;;;;;;;;;;6232094;28;20281;-54
2023/03/15 02:58:32;;;;;;;1.23;0.70;;;;;;;;;;6231122;28;20199;-55
2023/03/15 03:01:36;;;;;;;0.87;0.60;;;;;;;;;;6228981;28;20229;-53
2023/03/15 03:04:37;;;;;;;1.50;0.90;;;;;;;;;;6222737;28;20215;-51
2023/03/15 03:07:38;;;;;;;0.70;0.43;;;;;;;;;;6245921;28;20205;-57
2023/03/15 03:10:39;;;;;;;1.10;0.50;;;;;;;;;;6235786;28;20186;-53
2023/03/15 03:13:41;;;;;;;0.40;0.40;;;;;;;;;;6235017;28;20225;-55
2023/03/15 03:16:42;;;;;;;0.77;0.63;;;;;;;;;;6230681;28;20249;-53
2023/03/15 03:19:43;;;;;;;0.73;0.40;;;;;;;;;;6260593;28;20200;-55
2023/03/15 03:22:44;;;;;;;0.53;0.40;;;;;;;;;;6226653;28;20256;-55
2023/03/15 03:25:45;;;;;;;0.93;0.60;;;;;;;;;;6235175;28;20221;-52
2023/03/15 03:28:47;;;;;;;0.50;0.43;;;;;;;;;;6233199;28;20277;-56
2023/03/15 03:31:48;;;;;;;2.00;0.60;;;;;;;;;;6242940;28;20195;-51
2023/03/15 03:34:49;;;;;;;0.83;0.73;;;;;;;;;;6227629;28;20205;-55
2023/03/15 03:37:52;;;;;;;0.80;0.80;;;;;;;;;;6250433;28;20249;-54
2023/03/15 03:40:53;;;;;;;0.87;0.40;;;;;;;;;;6233991;28;20224;-56
2023/03/15 03:43:54;;;;;;;0.63;0.63;;;;;;;;;;6250216;28;20222;-52
2023/03/15 03:46:55;;;;;;;0.60;0.40;;;;;;;;;;6246332;28;20275;-52
2023/03/15 03:49:57;;;;;;;0.50;0.50;;;;;;;;;;6250152;28;20182;-55
2023/03/15 03:52:58;;;;;;;0.83;0.50;;;;;;;;;;6250944;28;20236;-55
2023/03/15 03:55:59;;;;;;;0.57;0.40;;;;;;;;;;6242927;28;20245;-55
2023/03/15 03:59:00;;;;;;;1.33;0.50;;;;;;;;;;6223954;28;20203;-52
2023/03/15 04:02:01;;;;;;;0.30;0.30;;;;;;;;;;6227597;28;20194;-55
2023/03/15 04:05:02;;;;;;;1.30;0.70;;;;;;;;;;6239119;28;20213;-56
2023/03/15 04:08:03;;;;;;;1.70;0.47;;;;;;;;;;6249745;28;20198;-53
2023/03/15 04:11:04;;;;;;;0.77;0.57;;;;;;;;;;6251177;28;20194;-56
2023/03/15 04:14:05;;;;;;;0.43;0.37;;;;;;;;;;6232644;28;20218;-55
2023/03/15 04:17:07;;;;;;;0.63;0.60;;;;;;;;;;6223916;28;20206;-51
2023/03/15 04:20:10;;;;;;;0.77;0.50;;;;;;;;;;6237123;28;20270;-55
2023/03/15 04:23:12;;;;;;;0.40;0.40;;;;;;;;;;6233347;28;20301;-55
2023/03/15 04:26:13;;;;;;;1.47;0.47;;;;;;;;;;6243735;28;20198;-56
2023/03/15 04:29:15;;;;;;;0.30;0.30;;;;;;;;;;6241344;28;20215;-53
2023/03/15 04:32:16;;;;;;;0.47;0.47;;;;;;;;;;6239888;28;20183;-56
2023/03/15 04:35:17;;;;;;;1.13;0.53;;;;;;;;;;6241544;28;20187;-55
2023/03/15 04:38:25;;;;;;;0.63;0.50;;;;;;;;;;6247438;28;20281;-55
2023/03/15 04:41:26;;;;;;;0.30;0.30;;;;;;;;;;6250181;28;20292;-52
2023/03/15 04:44:27;;;;;;;1.97;0.53;;;;;;;;;;6245776;28;20211;-54
2023/03/15 04:47:28;;;;;;;0.73;0.53;;;;;;;;;;6218303;28;20197;-53
2023/03/15 04:50:30;;;;;;;1.47;0.50;;;;;;;;;;6219853;28;20192;-56
2023/03/15 04:53:31;;;;;;;1.63;0.50;;;;;;;;;;6234433;28;20195;-56
2023/03/15 04:56:32;;;;;;;1.97;0.70;;;;;;;;;;6233813;28;20197;-56
2023/03/15 04:59:33;;;;;;;0.73;0.50;;;;;;;;;;6230518;28;20201;-52
2023/03/15 05:02:34;;;;;;;1.43;0.67;;;;;;;;;;6226613;28;20297;-56
2023/03/15 05:05:35;;;;;;;1.17;0.60;;;;;;;;;;6245801;28;20194;-51
2023/03/15 05:08:37;;;;;;;0.73;0.47;;;;;;;;;;6247963;28;20253;-50
2023/03/15 05:11:38;;;;;;;1.90;0.50;;;;;;;;;;6230642;28;20259;-52
2023/03/15 05:14:39;;;;;;;0.40;0.40;;;;;;;;;;6231520;28;20331;-49
2023/03/15 05:17:40;;;;;;;0.30;0.30;;;;;;;;;;6246768;28;20194;-51
2023/03/15 05:20:41;;;;;;;0.47;0.47;;;;;;;;;;6232186;28;20205;-53
2023/03/15 05:23:42;;;;;;;0.67;0.60;;;;;;;;;;6240040;28;20211;-57
2023/03/15 05:26:45;;;;;;;0.70;0.70;;;;;;;;;;6244828;28;20200;-53
2023/03/15 05:29:46;;;;;;;0.40;0.40;;;;;;;;;;6231178;28;20186;-53
2023/03/15 05:32:47;;;;;;;0.70;0.50;;;;;;;;;;6248277;28;20186;-51
2023/03/15 05:35:48;;;;;;;0.50;0.50;;;;;;;;;;6246123;28;20261;-54
2023/03/15 05:38:50;;;;;;;0.80;0.60;;;;;;;;;;6224948;28;20199;-54
2023/03/15 05:41:51;;;;;;;1.63;0.47;;;;;;;;;;6232512;28;20210;-54
2023/03/15 05:44:53;;;;;;;1.10;0.40;;;;;;;;;;6243395;28;20210;-54
2023/03/15 05:47:54;;;;;;;1.07;0.40;;;;;;;;;;6226541;28;20198;-50
2023/03/15 05:50:55;;;;;;;0.40;0.40;;;;;;;;;;6241189;28;20194;-50
2023/03/15 05:53:56;;;;;;;0.60;0.57;;;;;;;;;;6233685;28;20198;-50
2023/03/15 05:56:57;;;;;;;0.50;0.50;;;;;;;;;;6232016;28;20201;-53
2023/03/15 05:59:58;;;;;;;0.40;0.40;;;;;;;;;;6231676;28;20194;-51
2023/03/15 06:02:59;;;;;;;0.70;0.70;;;;;;;;;;6223356;28;20226;-54
2023/03/15 06:06:02;;;;;;;1.97;0.70;;;;;;;;;;6238689;28;20198;-52
2023/03/15 06:09:03;;;;;;;0.80;0.43;;;;;;;;;;6243597;28;20251;-51
2023/03/15 06:12:04;;;;;;;1.57;0.40;;;;;;;;;;6246321;28;20198;-54
2023/03/15 06:15:06;;;;;;;0.93;0.40;;;;;;;;;;6230206;28;20194;-53
2023/03/15 06:18:07;;;;;;;2.20;0.50;;;;;;;;;;6230032;28;20201;-51
2023/03/15 06:21:08;;;;;;;0.30;0.20;;;;;;;;;;6228951;28;20202;-52
2023/03/15 06:24:09;;;;;;;0.30;0.30;;;;;;;;;;6228445;28;20228;-54
2023/03/15 06:27:10;;;;;;;0.70;0.47;;;;;;;;;;6228977;28;20193;-55
2023/03/15 06:30:11;;;;;;;1.53;0.50;;;;;;;;;;6227140;28;20209;-54
2023/03/15 06:33:12;;;;;;;0.37;0.37;;;;;;;;;;6221589;28;20285;-54
2023/03/15 06:36:14;;;;;;;0.33;0.33;;;;;;;;;;6241072;28;20246;-53
2023/03/15 06:39:15;;;;;;;0.40;0.30;;;;;;;;;;6223773;28;20194;-55
2023/03/15 06:42:17;;;;;;;2.23;0.50;;;;;;;;;;6244069;28;20193;-53
2023/03/15 06:45:18;;;;;;;1.80;0.40;;;;;;;;;;6240677;28;20219;-52
2023/03/15 06:48:19;;;;;;;1.03;0.60;;;;;;;;;;6248390;28;20220;-55
2023/03/15 06:51:20;;;;;;;0.40;0.40;;;;;;;;;;6229053;28;20194;-52
2023/03/15 06:54:21;;;;;;;2.73;0.50;;;;;;;;;;6234081;28;20287;-51
2023/03/15 06:57:22;;;;;;;0.60;0.50;;;;;;;;;;6224873;28;20205;-50
2023/03/15 07:00:23;;;;;;;1.60;0.63;;;;;;;;;;6230130;28;20209;-51
2023/03/15 07:03:24;;;;;;;0.53;0.50;;;;;;;;;;6227939;28;20269;-49
2023/03/15 07:06:27;;;;;;;1.53;0.50;;;;;;;;;;6219547;28;20194;-53
2023/03/15 07:09:28;;;;;;;1.23;0.50;;;;;;;;;;6224310;28;20197;-50
2023/03/15 07:12:29;;;;;;;0.60;0.43;;;;;;;;;;6238832;28;20284;-55
2023/03/15 07:15:30;;;;;;;0.50;0.37;;;;;;;;;;6232245;28;20187;-51
2023/03/15 07:18:34;;;;;;;1.30;0.43;;;;;;;;;;6228474;28;20186;-54
2023/03/15 07:21:35;;;;;;;1.30;0.50;;;;;;;;;;6232296;28;20210;-51
2023/03/15 07:24:36;;;;;;;0.63;0.50;;;;;;;;;;6244828;28;20207;-54
2023/03/15 07:27:37;;;;;;;0.93;0.40;;;;;;;;;;6225061;28;20222;-52
2023/03/15 07:30:38;;;;;;;0.60;0.40;;;;;;;;;;6240093;28;20199;-51
2023/03/15 07:33:39;;;;;;;0.50;0.47;;;;;;;;;;6230658;28;20216;-54
2023/03/15 07:36:41;;;;;;;0.67;0.50;;;;;;;;;;6243613;28;20285;-50
2023/03/15 07:39:42;;;;;;;0.30;0.30;;;;;;;;;;6229741;28;20199;-49
2023/03/15 07:42:43;;;;;;;0.50;0.50;;;;;;;;;;6230372;28;20231;-52
2023/03/15 07:45:44;;;;;;;0.73;0.50;;;;;;;;;;6238727;28;20257;-53
2023/03/15 07:48:45;;;;;;;0.50;0.50;;;;;;;;;;6224329;28;20206;-51
2023/03/15 07:51:46;;;;;;;0.30;0.30;;;;;;;;;;6230407;28;20213;-53
2023/03/15 07:54:47;;;;;;;0.30;0.30;;;;;;;;;;6224246;28;20222;-52
2023/03/15 07:57:48;;;;;;;1.00;0.50;;;;;;;;;;6245657;28;20284;-52
2023/03/15 08:00:49;;;;;;;0.50;0.30;;;;;;;;;;6238364;28;20198;-49
2023/03/15 08:03:50;;;;;;;0.60;0.50;;;;;;;;;;6222191;28;20214;-52
2023/03/15 08:06:51;;;;;;;0.63;0.50;;;;;;;;;;6247736;28;20201;-50
2023/03/15 08:09:53;;;;;;;1.73;0.50;;;;;;;;;;6229988;28;20209;-49
2023/03/15 08:12:54;;;;;;;0.53;0.47;;;;;;;;;;6244561;28;20198;-54
2023/03/15 08:15:55;;;;;;;2.57;0.40;;;;;;;;;;6232064;28;20194;-50
2023/03/15 08:18:56;;;;;;;1.53;0.40;;;;;;;;;;6218635;28;20202;-50
2023/03/15 08:21:57;;;;;;;0.23;0.23;;;;;;;;;;6230453;28;20193;-50
2023/03/15 08:24:58;;;;;;;0.40;0.40;;;;;;;;;;6239784;28;20281;-49
2023/03/15 08:27:59;;;;;;;0.90;0.33;;;;;;;;;;6222650;28;20186;-48
2023/03/15 08:31:00;;;;;;;0.47;0.20;;;;;;;;;;6247264;28;20201;-49
2023/03/15 08:34:02;;;;;;;0.63;0.30;;;;;;;;;;6263906;28;20182;-49
2023/03/15 08:37:04;;;;;;;0.30;0.30;;;;;;;;;;6230386;28;20254;-49
2023/03/15 08:40:08;;;;;;;0.50;0.40;;;;;;;;;;6221347;28;20377;-50
2023/03/15 08:43:09;;;;;;;0.30;0.30;;;;;;;;;;6245400;28;20222;-51
2023/03/15 08:46:11;;;;;;;1.20;0.30;;;;;;;;;;6229043;28;20237;-52
2023/03/15 08:49:12;;;;;;;0.47;0.30;;;;;;;;;;6229253;28;20210;-51
2023/03/15 08:52:14;;;;;;;0.73;0.30;;;;;;;;;;6227870;28;20232;-50
2023/03/15 08:55:15;;;;;;;0.30;0.30;;;;;;;;;;6222240;28;20419;-51
2023/03/15 08:58:16;;;;;;;0.60;0.60;;;;;;;;;;6246206;28;20264;-51
2023/03/15 09:01:17;;;;;;;0.77;0.40;;;;;;;;;;6225063;28;20257;-53
2023/03/15 09:04:18;;;;;;;0.73;0.37;;;;;;;;;;6232177;28;20313;-52
2023/03/15 09:07:20;;;;;;;0.27;0.27;;;;;;;;;;6244325;28;20191;-48
2023/03/15 09:10:21;;;;;;;0.20;0.20;;;;;;;;;;6230492;28;20191;-49
2023/03/15 09:13:22;;;;;;;0.40;0.40;;;;;;;;;;6222696;28;20198;-48
2023/03/15 09:16:23;;;;;;;1.43;0.50;;;;;;;;;;6245121;28;20186;-53
2023/03/15 09:19:24;;;;;;;0.43;0.20;;;;;;;;;;6226024;28;20199;-49
2023/03/15 09:22:26;;;;;;;0.73;0.33;;;;;;;;;;6230243;28;20198;-53
2023/03/15 09:25:27;;;;;;;0.30;0.30;;;;;;;;;;6221658;28;20202;-50
2023/03/15 09:28:28;;;;;;;0.30;0.30;;;;;;;;;;6226880;28;20198;-50
2023/03/15 09:31:30;;;;;;;1.27;0.23;;;;;;;;;;6224298;28;20206;-51
2023/03/15 09:34:31;;;;;;;0.67;0.20;;;;;;;;;;6215573;28;20667;-54
2023/03/15 09:37:34;;;;;;;1.37;0.70;;;;;;;;;;6224639;28;20238;-50
2023/03/15 09:40:46;;;;;;;0.20;0.20;;;;;;;;;;6238154;28;20195;-49
2023/03/15 09:43:50;;;;;;;0.20;0.20;;;;;;;;;;6240062;28;20261;-50
2023/03/15 09:47:03;;;;;;;0.30;0.30;;;;;;;;;;6243820;28;20274;-49
2023/03/15 09:50:23;;;;;;;0.33;0.20;;;;;;;;;;6236816;28;20187;-49
2023/03/15 09:53:28;;;;;;;0.20;0.20;;;;;;;;;;6233534;28;20198;-50
2023/03/15 09:56:32;;;;;;;0.20;0.20;;;;;;;;;;6244459;28;20195;-49
2023/03/15 09:59:42;;;;;;;0.30;0.30;;;;;;;;;;6236824;28;20190;-48
2023/03/15 10:02:47;;;;;;;0.20;0.20;;;;;;;;;;6241801;28;20199;-51
2023/03/15 10:05:52;;;;;;;3.60;0.20;;;;;;;;;;6232429;28;20188;-49
2023/03/15 10:08:57;;;;;;;0.30;0.30;;;;;;;;;;6231198;28;20184;-50
2023/03/15 10:12:10;;;;;;;1.63;0.83;;;;;;;;;;6244773;28;20182;-48
2023/03/15 10:15:14;;;;;;;0.20;0.20;;;;;;;;;;6244172;28;20222;-50
2023/03/15 10:18:25;;;;;;;0.60;0.23;;;;;;;;;;6244812;28;20229;-50
2023/03/15 10:21:38;;;;;;;0.30;0.30;;;;;;;;;;6249213;28;20194;-52
2023/03/15 10:24:51;;;;;;;0.40;0.40;;;;;;;;;;6235454;28;20214;-49
2023/03/15 10:27:55;;;;;;;0.30;0.30;;;;;;;;;;6232457;28;20187;-48
2023/03/15 10:30:59;;;;;;;0.40;0.40;;;;;;;;;;6248392;28;20186;-50
2023/03/15 10:34:00;;;;;;;0.20;0.20;;;;;;;;;;6233614;28;20191;-51
2023/03/15 10:37:05;;;;;;;0.20;0.20;;;;;;;;;;6232993;28;20395;-50
2023/03/15 10:40:08;;;;;;;0.20;0.20;;;;;;;;;;6234016;28;20233;-53
2023/03/15 10:43:21;;;;;;;0.20;0.20;;;;;;;;;;6234455;28;20220;-49
2023/03/15 10:46:22;;;;;;;0.20;0.20;;;;;;;;;;6246200;28;20245;-49
2023/03/15 10:49:32;;;;;;;0.20;0.20;;;;;;;;;;6224429;28;20198;-49
2023/03/15 10:52:37;;;;;;;0.70;0.30;;;;;;;;;;6249975;28;20191;-54
2023/03/15 10:55:42;;;;;;;0.27;0.27;;;;;;;;;;6245251;28;20192;-47
2023/03/15 10:58:47;;;;;;;0.33;0.33;;;;;;;;;;6247278;28;20197;-48
2023/03/15 11:01:50;;;;;;;1.63;0.50;;;;;;;;;;6232398;28;20188;-49
2023/03/15 11:05:00;;;;;;;0.70;0.43;;;;;;;;;;6239724;28;20215;-48
2023/03/15 11:08:01;;;;;;;0.40;0.30;;;;;;;;;;6247762;28;20210;-47
2023/03/15 11:11:03;;;;;;;0.70;0.50;;;;;;;;;;6233420;28;20198;-49
2023/03/15 11:14:06;;;;;;;0.30;0.30;;;;;;;;;;6246791;28;20194;-48
2023/03/15 11:17:08;;;;;;;0.30;0.30;;;;;;;;;;6242936;28;20223;-52
2023/03/15 11:20:26;;;;;;;0.30;0.30;;;;;;;;;;6241367;28;20222;-51
2023/03/15 11:23:28;;;;;;;0.30;0.30;;;;;;;;;;6247531;28;20211;-51
2023/03/15 11:26:33;;;;;;;0.70;0.20;;;;;;;;;;6246423;28;20193;-49
2023/03/15 11:29:35;;;;;;;0.10;0.10;;;;;;;;;;6247531;28;20186;-50
2023/03/15 11:32:37;;;;;;;0.73;0.33;;;;;;;;;;6226507;28;20198;-51
2023/03/15 11:35:40;;;;;;;0.30;0.30;;;;;;;;;;6225930;28;20238;-48
2023/03/15 11:38:42;;;;;;;0.30;0.30;;;;;;;;;;6246567;28;20193;-54
2023/03/15 11:41:47;;;;;;;0.20;0.20;;;;;;;;;;6252470;28;20195;-54
2023/03/15 11:44:50;;;;;;;0.20;0.20;;;;;;;;;;6234769;28;20221;-51
2023/03/15 11:47:57;;;;;;;0.50;0.40;;;;;;;;;;6241673;28;20191;-54
2023/03/15 11:50:59;;;;;;;1.27;0.70;;;;;;;;;;6242077;28;20187;-49
2023/03/15 11:54:00;;;;;;;0.67;0.40;;;;;;;;;;6237429;28;20198;-51
2023/03/15 11:57:02;;;;;;;1.27;0.60;;;;;;;;;;6240447;28;20225;-51
2023/03/15 12:00:22;;;;;;;0.40;0.40;;;;;;;;;;6246557;28;20289;-54
2023/03/15 12:03:29;;;;;;;1.17;0.80;;;;;;;;;;6236410;28;20284;-49
2023/03/15 12:06:34;;;;;;;2.67;0.67;;;;;;;;;;6244539;28;20226;-52
2023/03/15 12:09:35;;;;;;;0.70;0.50;;;;;;;;;;6250765;28;20186;-51
2023/03/15 12:12:37;;;;;;;0.60;0.50;;;;;;;;;;6249480;28;20197;-48
2023/03/15 12:15:38;;;;;;;0.67;0.50;;;;;;;;;;6241979;28;20194;-53
2023/03/15 12:18:42;;;;;;;2.00;0.63;;;;;;;;;;6246186;28;20190;-53
2023/03/15 12:21:49;;;;;;;1.63;1.23;;;;;;;;;;6241472;28;20198;-50
2023/03/15 12:24:50;;;;;;;3.07;0.90;;;;;;;;;;6241529;28;20234;-51
2023/03/15 12:27:53;;;;;;;1.77;0.63;;;;;;;;;;6231716;28;20198;-55
2023/03/15 12:30:57;;;;;;;0.83;0.60;;;;;;;;;;6244256;28;20250;-50
2023/03/15 12:34:00;;;;;;;1.40;0.63;;;;;;;;;;6240222;28;20187;-50
2023/03/15 12:37:04;;;;;;;0.67;0.53;;;;;;;;;;6238327;28;20243;-49
2023/03/15 12:40:14;;;;;;;1.20;0.80;;;;;;;;;;6245143;28;20206;-54
2023/03/15 12:43:15;;;;;;;0.80;0.43;;;;;;;;;;6261852;28;20216;-51
2023/03/15 12:46:46;;;;;;;3.07;0.50;;;;;;;;;;6247214;28;20236;-49
2023/03/15 12:49:47;;;;;;;1.83;0.60;;;;;;;;;;6251391;28;20206;-49
2023/03/15 12:52:52;;;;;;;0.90;0.73;;;;;;;;;;6244754;28;20194;-47
2023/03/15 12:55:53;;;;;;;3.50;0.80;;;;;;;;;;6235335;28;20195;-49
2023/03/15 12:58:58;;;;;;;1.93;0.80;;;;;;;;;;6238566;28;20183;-49
2023/03/15 13:02:01;;;;;;;1.57;0.87;;;;;;;;;;6237972;28;20183;-47
2023/03/15 13:05:22;;;;;;;1.23;0.80;;;;;;;;;;6251259;28;20272;-49
2023/03/15 13:08:24;;;;;;;1.50;0.90;;;;;;;;;;6238713;28;20191;-48
2023/03/15 13:11:31;;;;;;;1.47;0.80;;;;;;;;;;6245485;28;20201;-47
2023/03/15 13:14:47;;;;;;;2.03;0.77;;;;;;;;;;6246119;28;20198;-49
2023/03/15 13:17:50;;;;;;;2.10;0.70;;;;;;;;;;6245024;28;20195;-48
2023/03/15 13:21:10;;;;;;;1.90;0.70;;;;;;;;;;6237907;28;20197;-50
2023/03/15 13:24:15;;;;;;;1.50;0.73;;;;;;;;;;6258651;28;20293;-47
2023/03/15 13:27:22;;;;;;;2.57;0.77;;;;;;;;;;6243387;28;20205;-49
2023/03/15 13:30:33;;;;;;;2.97;0.83;;;;;;;;;;6234919;28;20188;-48
2023/03/15 13:33:34;;;;;;;1.63;0.80;;;;;;;;;;6236663;28;20187;-48
2023/03/15 13:36:45;;;;;;;1.50;0.70;;;;;;;;;;6229321;28;20241;-48
2023/03/15 13:39:59;;;;;;;1.00;0.80;;;12.50;48.20;;;;;;6236959;28;20192;-47
2023/03/15 13:43:01;;;;;;;2.57;1.00;;;20.30;18.60;;;;;;6245425;28;20224;-47
2023/03/15 13:46:01;;;;;;;1.27;0.80;;;20.50;19.00;;;;;;6221725;28;20254;-45
2023/03/15 13:49:02;;;;;;;2.50;0.73;;;21.40;17.90;;;;;;6223974;28;20209;-46
2023/03/15 13:52:10;;;;;;;2.33;0.93;;;;;;;;;;6225416;28;20190;-48
2023/03/15 13:55:14;;;;;;;1.57;1.00;;;21.00;17.50;;;;;;6237993;28;20199;-47
2023/03/15 13:58:15;;;;;;;1.33;0.70;;;21.70;17.60;;;;;;6223573;28;20195;-49
2023/03/15 14:01:16;;;;;;;0.87;0.60;;;20.30;18.00;;;;;;6234343;28;20197;-46
2023/03/15 14:04:18;;;;;;;1.37;0.70;;;;;;;;;;6207818;28;20238;-49
2023/03/15 14:07:37;;;;;;;1.50;0.80;;;18.20;19.50;;;;;;6245432;28;20186;-48
2023/03/15 14:10:39;;;;;;;1.70;0.80;;;17.50;20.10;;;;;;6232546;28;20186;-49
2023/03/15 14:13:46;;;;;;;1.37;0.80;;;;;;;;;;6228460;28;20194;-52
2023/03/15 14:16:47;;;;;;;1.57;0.90;;;;;;;;;;6231608;28;20197;-50
2023/03/15 14:19:54;;;;;;;1.50;1.03;;;19.30;19.90;;;;;;6243794;28;20240;-50
2023/03/15 14:23:03;;;;;;;1.30;0.57;;;24.60;17.00;;;;;;6237521;28;20222;-48
2023/03/15 14:26:22;;;;;;;1.83;0.80;;;25.20;16.80;;;;;;6227670;28;20193;-48
2023/03/15 14:29:29;;;;;;;1.07;0.77;;;25.30;16.70;;;;;;6244496;28;20187;-48
2023/03/15 14:32:36;;;;;;;2.23;0.80;;;26.40;16.40;;;;;;6243354;28;20187;-49
2023/03/15 14:35:36;;;;;;;0.93;0.53;;;25.60;16.30;;;;;;6258608;28;20230;-50
2023/03/15 14:38:38;;;;;;;1.80;0.70;;;24.90;17.50;;;;;;6247767;28;20190;-47
2023/03/15 14:41:40;;;;;;;0.70;0.60;;;24.60;18.00;;;;;;6247162;28;20229;-51
2023/03/15 14:44:40;;;;;;;2.93;0.70;;;24.10;16.80;;;;;;6208067;28;20230;-48
2023/03/15 14:47:48;;;;;;;1.00;0.80;;;23.20;17.50;;;;;;6231095;28;20199;-48
2023/03/15 14:50:50;;;;;;;1.57;0.80;;;;;;;;;;6232701;28;20215;-54
2023/03/15 14:53:53;;;;;;;2.57;1.03;;;;;;;;;;6222993;28;20273;-50
2023/03/15 14:56:54;;;;;;;2.57;1.20;;;;;;;;;;6247433;28;20288;-51
2023/03/15 14:59:55;;;;;;;1.40;0.90;;;;;;;;;;6244725;28;20226;-47
2023/03/15 15:02:56;;;;;;;2.00;1.00;;;;;;;;;;6227769;28;20191;-47
2023/03/15 15:05:58;;;;;;;1.70;0.80;;;;;;;;;;6246241;28;20217;-51
2023/03/15 15:09:00;;;;;;;1.70;0.87;;;21.10;19.30;;;;;;6232407;28;20321;-48
2023/03/15 15:12:01;;;;;;;2.20;1.30;;;;;;;;;;6250618;28;20285;-49
2023/03/15 15:15:09;;;;;;;0.70;0.70;;;;;;;;;;6238318;28;20201;-51
2023/03/15 15:18:10;;;;;;;1.50;0.80;;;;;;;;;;6249129;28;20206;-50
2023/03/15 15:21:31;;;;;;;0.80;0.80;;;21.40;19.20;;;;;;6249723;28;20199;-50
2023/03/15 15:24:32;;;;;;;1.50;0.80;;;22.90;17.30;;;;;;6248870;28;20215;-53
2023/03/15 15:27:33;;;;;;;1.60;0.90;;;22.50;17.30;;;;;;6218820;28;20325;-51
2023/03/15 15:30:34;;;;;;;2.73;1.10;;;22.50;17.80;;;;;;6218563;28;20198;-51
2023/03/15 15:33:35;;;;;;;1.63;0.90;;;23.00;17.00;;;;;;6242057;28;20206;-49
2023/03/15 15:36:41;;;;;;;1.17;0.83;;;23.40;17.00;;;;;;6241318;28;20250;-51
2023/03/15 15:39:42;;;;;;;1.20;0.90;;;23.30;16.60;;;;;;6250803;28;20194;-47
2023/03/15 15:42:44;;;;;;;1.93;1.00;;;;;;;;;;6230160;28;20204;-48
2023/03/15 15:45:45;;;;;;;1.30;0.90;;;22.60;17.10;;;;;;6223756;28;20249;-51
2023/03/15 15:48:46;;;;;;;1.83;1.10;;;22.60;17.20;;;;;;6215371;28;20193;-53
2023/03/15 15:51:50;;;;;;;1.23;0.83;;;22.60;17.00;;;;;;6240390;28;20211;-50
2023/03/15 15:54:51;;;;;;;1.20;1.10;;;22.60;17.30;;;;;;6232051;28;20190;-53
2023/03/15 15:57:53;;;;;;;1.07;0.93;;;22.60;17.20;;;;;;6234055;28;20229;-50
2023/03/15 16:00:54;;;;;;;3.33;1.27;;;22.10;17.70;;;;;;6230182;28;20226;-54
2023/03/15 16:03:55;;;;;;;1.30;1.00;;;20.70;17.60;;;;;;6216663;28;20213;-51
2023/03/15 16:07:00;;;;;;;1.10;1.00;;;20.30;18.20;;;;;;6237048;28;20213;-48
2023/03/15 16:10:01;;;;;;;1.00;0.90;;;20.00;17.90;;;;;;6244268;28;20185;-50
2023/03/15 16:13:03;;;;;;;1.33;1.00;;;19.70;18.30;;;;;;6234537;28;20194;-50
2023/03/15 16:16:05;;;;;;;1.57;1.07;;;;;;;;;;6232619;28;20195;-50
2023/03/15 16:19:06;;;;;;;2.20;1.03;;;;;;;;;;6238264;28;20191;-51
2023/03/15 16:22:07;;;;;;;2.27;1.23;;;;;;;;;;6231005;28;20191;-51
2023/03/15 16:25:10;;;;;;;2.63;1.00;;;;;;;;;;6236285;28;20230;-53
2023/03/15 16:28:11;;;;;;;1.33;1.20;;;;;;;;;;6248741;28;20193;-55
2023/03/15 16:31:12;;;;;;;3.33;1.33;;;;;;;;;;6225750;28;20202;-52
2023/03/15 16:34:15;;;;;;;1.50;1.00;;;;;;;;;;6217318;28;20207;-49
2023/03/15 16:37:28;;;;;;;1.60;1.50;;;;;;;;;;6243680;28;20305;-50
2023/03/15 16:40:31;;;;;;;2.33;1.20;;;;;;;;;;6242828;28;20195;-49
2023/03/15 16:43:32;;;;;;;2.77;1.43;;;;;;;;;;6245570;28;20217;-52
2023/03/15 16:46:34;;;;;;;2.60;1.40;;;;;;;;;;6233286;28;20195;-55
2023/03/15 16:49:35;;;;;;;1.73;1.10;;;;;;;;;;6226262;28;20334;-54
2023/03/15 16:52:36;;;;;;;2.27;1.20;;;;;;;;;;6227979;28;20191;-52
2023/03/15 16:55:38;;;;;;;2.80;1.37;;;;;;;;;;6236351;28;20198;-52
2023/03/15 16:58:41;;;;;;;1.73;1.27;;;;;;;;;;6238951;28;20205;-48
2023/03/15 17:01:43;;;;;;;2.20;1.17;;;;;;;;;;6248261;28;20412;-52
2023/03/15 17:04:44;;;;;;;1.43;1.10;;;;;;;;;;6248751;28;20260;-53
2023/03/15 17:07:48;;;;;;;1.93;1.47;;;;;;;;;;6226532;28;20194;-50
2023/03/15 17:10:49;;;;;;;1.20;1.10;;;;;;;;;;6230013;28;20191;-51
2023/03/15 17:13:50;;;;;;;2.80;1.20;;;;;;;;;;6230630;28;20200;-52
2023/03/15 17:16:52;;;;;;;2.40;1.37;;;;;;;;;;6231822;28;20225;-55
2023/03/15 17:19:53;;;;;;;2.33;1.50;;;;;;;;;;6230764;28;20199;-52
2023/03/15 17:23:02;;;;;;;1.93;1.30;;;;;;;;;;6231310;28;20201;-53
2023/03/15 17:26:03;;;;;;;2.37;1.40;;;;;;;;;;6247761;28;20195;-50
2023/03/15 17:29:05;;;;;;;2.90;1.40;;;;;;;;;;6245432;28;20195;-50
2023/03/15 17:32:10;;;;;;;1.37;1.03;;;;;;;;;;6230810;28;20186;-49
2023/03/15 17:35:12;;;;;;;4.00;1.67;;;;;;;;;;6243455;28;20195;-53
2023/03/15 17:38:22;;;;;;;1.70;1.20;;;;;;;;;;6236898;28;20223;-49
2023/03/15 17:41:23;;;;;;;2.60;1.40;;;;;;;;;;6245364;28;20207;-50
2023/03/15 17:44:25;;;;;;;6.20;1.30;;;;;;;;;;6236852;28;20227;-52
2023/03/15 17:47:28;;;;;;;2.43;1.40;;;;;;;;;;6233401;28;20195;-52
2023/03/15 17:50:30;;;;;;;2.17;1.30;;;;;;;;;;6232922;28;20186;-52
2023/03/15 17:53:33;;;;;;;1.63;1.10;;;;;;;;;;6234161;28;20198;-55
2023/03/15 17:56:34;;;;;;;2.20;1.57;;;;;;;;;;6245386;28;20191;-50
2023/03/15 17:59:35;;;;;;;1.60;1.20;;;;;;;;;;6230122;28;20267;-54